NY Terminal Aviation Weather Discussion (AFD)
A COLD FRONT IS SLIDING SOUTH ACROSS THE NY METRO THIS MORNING.
THE FRONT SAGS SOUTH OF THE REGION THIS MORNING AS HIGH PRESSURE
BUILDS OVER NEW ENGLAND.

IFR CIGS ARE LOCATED BEHIND THE FRONT. THESE ARE NOW INTO KLGA AND
KISP AS OF 11Z. EXPECTING SLOW IMPROVEMENT BY MID MORNING FROM EAST
TO WEST...THOUGH UNSURE OF TIMING DETAILS AND RATE OF IMPROVEMENT.

FAIRLY CONFIDENT THAT WE'LL BE VFR IN THE AFTERNOON WITH WESTERN
SECTIONS THE LAST TO IMPROVE.

SOME LIGHT RAIN WITH SCATTERED SHOWERS POSSIBLE EASTERN SECTIONS
TODAY.

*************************************************************************************
KJFK Terminal Weather:

FTNA35 KJFK 301400 RRC
KJFK 301355Z 3014/0118 10009KT P6SM SCT020 BKN050
     TEMPO 3015/3018 BKN020
     FM301800 09006KT P6SM SCT030 BKN080
     FM010200 05010KT P6SM OVC012
     FM011300 03012G18KT P6SM OVC012
KJFK Forecaster Comments Not Available at This Time
*************************************************************************************
KLGA Terminal Weather:
FTUS31 KLGA 301357 AAA
KLGA 301355Z 3014/0112 06012KT P6SM SCT020 BKN050
      TEMPO 3015/3018 BKN020
     FM301800 08013KT P6SM SCT030 BKN080
     FM010200 05012KT P6SM OVC012
KLGA FCSTER COMMENTS: EXPECT GRADUAL RAISING OF THE CIG THIS
MORNING. HIGH CONFIDENCE IN SFC WIND FCST.

*************************************************************************************
KEWR Terminal Weather:
FTUS80 KEWR 301127 RRA
KEWR 301124Z 3012/0118 VRB03KT P6SM OVC070
     FM301300 08006KT P6SM BKN018
     FM302000 12006KT P6SM SCT030 BKN080
     FM010400 05009KT P6SM OVC012
KEWR FCSTER COMMENTS: UNCERTAINTY IN ARRIVAL TIME OF MVFR CIG THIS
AM.

THE AFTERNOON KEWR HAZE POTENTIAL FORECAST IS GREEN...WHICH
IMPLIES SLANT RANGE VISIBILITY 7SM OR GREATER OUTSIDE OF CLOUD.

*************************************************************************************
KTEB Terminal Weather:
FTUS31 KTEB 301251 AAA
KTEB 301250Z 3013/0112 09005KT P6SM SCT015 BKN025
      TEMPO 3015/3017 BKN015
     FM301700 11006KT P6SM BKN025
     FM301930 12006KT P6SM SCT030 BKN080
     FM010400 05009KT P6SM OVC012
KTEB FCSTER COMMENTS: UNCERTAINTY IN CIG HEIGHT THIS AM. 

*************************************************************************************
KHPN Terminal Weather:
FTUS80 KHPN 301127 RRA
KHPN 301124Z 3012/0112 10004KT 1SM BR VV003
     FM301300 10003KT 3SM BR OVC006
     FM301600 10005KT 6SM BR OVC015
     FM301800 09005KT P6SM BKN035
     FM010200 05007KT P6SM BKN012
     FM010500 04010KT P6SM OVC008 AMD NOT SKED
KHPN FCSTER COMMENTS: CONFIDENT IN THE IMPROVEMENT THIS
MORNING...THOUGH UNCERTAINTY IN THE TIMING.

*************************************************************************************
KISP Terminal Weather:
FTUS80 KISP 301127 RRB
KISP 301124Z 3012/0112 08007KT 5SM -RA BR OVC004
     FM301300 09007KT 6SM -RA BR OVC007
     FM301630 10009KT P6SM OVC015
     FM301800 10010KT P6SM SCT015 BKN080
     FM010300 06012KT P6SM OVC015
KISP FCSTER COMMENTS: TIMING OF CIG IMPROVEMENT COULD BE +/- 1-2
HOURS. 

*************************************************************************************
5 Day General Outlook:

.OUTLOOK FOR 12Z WEDNESDAY THROUGH SATURDAY...
.LATE T0NIGHT...MVFR OR LOWER CIGS POSSIBLE. CHC -SHRA E-NE WINDS
AROUND 10 KT.
.WED...MVFR LOCALLY IFR CIGS/VSBYS/-SHRA. E-NE WINDS 10-15 WITH G
20 KT ALONG THE COAST.
.THU...CHC MVFR MAINLY AM. NE WINDS AROUND 10 KT.
.FRI...VFR. SE-S WINDS AROUND 10 KT.
.SAT...RAIN LIKELY - MVFR OR LOWER IN THE AM. SW WINDS AM BECMG WNW
PM. GUSTS 20-25KT LIKELY LATE.


Click the Print Icon print icon below to print the briefing sheet